Lady Eman — 5IM513 — position and weather

sailwx.info

Track history (hours):
 
Tides and Currents Weather Stations Pressure Air Temp Water Temp Dewpoint Dewpoint Depression Visibility Wind Speed Wind Dir Waves Ship Positions

Lady Eman

Last reported at 2014-Nov-03 18:11 UTC. Time now 2014-Dec-19 10:09 UTC.
Position N 34°31' E 033°30'.
Warning: this ship's position is 45 days out of date.

Length 92 m; draft 7 m.

Type: Cargo ship. MMSI: 677041300.

Date/timePositionNaut miles runAvg speedWind from/ knotsBaromVisibWave heightAir tempDewpointWater temp
2014-Nov-03 18:11N 34°31' E 033°30'3 9.0
2014-Nov-03 17:50N 34°30' E 033°26'2 8.8
2014-Nov-03 17:33N 34°30' E 033°23'8 8.4
2014-Nov-03 16:33N 34°28' E 033°14'17 8.7
2014-Nov-03 14:33N 34°24' E 032°53'8 8.3
2014-Nov-03 13:33N 34°26' E 032°43'8 8.6
2014-Nov-03 12:33N 34°29' E 032°34'11 8.7
2014-Nov-03 11:19N 34°34' E 032°22'326 7.3
2014-Nov-01 14:33N 37°07' E 026°27'8 8.3
2014-Nov-01 13:32N 37°13' E 026°19'7 7.7
2014-Nov-01 12:33N 37°18' E 026°12'7 7.0
2014-Nov-01 11:33N 37°22' E 026°05'7 7.4
2014-Nov-01 10:33N 37°27' E 025°58'7 6.9
2014-Nov-01 09:33N 37°33' E 025°53'1 0.7
2014-Nov-01 08:24N 37°33' E 025°53'16 5.0
2014-Nov-01 05:14N 37°49' E 025°50'228 7.0
2014-Oct-30 20:31N 40°54' E 028°43'9 8.2
2014-Oct-30 19:27N 40°55' E 028°54'26 9.1
2014-Oct-30 16:33N 41°19' E 029°10'9 7.1
2014-Oct-30 15:21N 41°25' E 029°18'5 5.8
2014-Oct-30 14:33N 41°27' E 029°23'7 7.2
2014-Oct-30 13:33N 41°33' E 029°30'  
Track history (hours):
 
Tides and Currents Weather Stations Pressure Air Temp Water Temp Dewpoint Dewpoint Depression Visibility Wind Speed Wind Dir Waves Ship Positions

Lady Eman

Last reported at 2014-Nov-03 18:11 UTC. Time now 2014-Dec-19 10:09 UTC.
Position N 34°31' E 033°30'.
Warning: this ship's position is 45 days out of date.

Length 92 m; draft 7 m.

Type: Cargo ship. MMSI: 677041300.

Date/timePositionNaut miles runAvg speedWind from/ knotsBaromVisibWave heightAir tempDewpointWater temp
2014-Nov-03 18:11N 34°31' E 033°30'3 9.0
2014-Nov-03 17:50N 34°30' E 033°26'2 8.8
2014-Nov-03 17:33N 34°30' E 033°23'8 8.4
2014-Nov-03 16:33N 34°28' E 033°14'17 8.7
2014-Nov-03 14:33N 34°24' E 032°53'8 8.3
2014-Nov-03 13:33N 34°26' E 032°43'8 8.6
2014-Nov-03 12:33N 34°29' E 032°34'11 8.7
2014-Nov-03 11:19N 34°34' E 032°22'326 7.3
2014-Nov-01 14:33N 37°07' E 026°27'8 8.3
2014-Nov-01 13:32N 37°13' E 026°19'7 7.7
2014-Nov-01 12:33N 37°18' E 026°12'7 7.0
2014-Nov-01 11:33N 37°22' E 026°05'7 7.4
2014-Nov-01 10:33N 37°27' E 025°58'7 6.9
2014-Nov-01 09:33N 37°33' E 025°53'1 0.7
2014-Nov-01 08:24N 37°33' E 025°53'16 5.0
2014-Nov-01 05:14N 37°49' E 025°50'228 7.0
2014-Oct-30 20:31N 40°54' E 028°43'9 8.2
2014-Oct-30 19:27N 40°55' E 028°54'26 9.1
2014-Oct-30 16:33N 41°19' E 029°10'9 7.1
2014-Oct-30 15:21N 41°25' E 029°18'5 5.8
2014-Oct-30 14:33N 41°27' E 029°23'7 7.2
2014-Oct-30 13:33N 41°33' E 029°30'  

Dump ship's entire track history